sensor_id;sensor_type;location;lat;lon;timestamp;pressure;altitude;pressure_sealevel;temperature;humidity
13968;BME280;39536;52.198;9.920;2022-09-09T00:02:20;100043.56;;;16.22;83.16
13968;BME280;39536;52.198;9.920;2022-09-09T00:04:54;100047.69;;;16.26;83.46
13968;BME280;39536;52.198;9.920;2022-09-09T00:07:31;100040.00;;;16.23;83.80
13968;BME280;39536;52.198;9.920;2022-09-09T00:10:05;100045.38;;;16.21;84.56
13968;BME280;39536;52.198;9.920;2022-09-09T00:12:45;100042.63;;;16.23;84.48
13968;BME280;39536;52.198;9.920;2022-09-09T00:15:19;100047.81;;;16.24;84.34
13968;BME280;39536;52.198;9.920;2022-09-09T00:17:49;100045.25;;;16.23;84.46
13968;BME280;39536;52.198;9.920;2022-09-09T00:20:23;100043.88;;;16.17;84.49
13968;BME280;39536;52.198;9.920;2022-09-09T00:22:59;100037.47;;;16.21;84.34
13968;BME280;39536;52.198;9.920;2022-09-09T00:25:37;100039.47;;;16.17;84.80
13968;BME280;39536;52.198;9.920;2022-09-09T00:28:13;100039.84;;;16.11;84.96
13968;BME280;39536;52.198;9.920;2022-09-09T00:30:41;100044.16;;;16.12;84.81
13968;BME280;39536;52.198;9.920;2022-09-09T00:33:12;100043.22;;;16.13;84.83
13968;BME280;39536;52.198;9.920;2022-09-09T00:35:44;100045.59;;;16.04;84.85
13968;BME280;39536;52.198;9.920;2022-09-09T00:38:13;100041.59;;;15.98;85.10
13968;BME280;39536;52.198;9.920;2022-09-09T00:40:45;100042.81;;;15.92;85.69
13968;BME280;39536;52.198;9.920;2022-09-09T00:43:28;100045.72;;;15.88;85.94
13968;BME280;39536;52.198;9.920;2022-09-09T00:46:14;100044.09;;;15.85;86.08
13968;BME280;39536;52.198;9.920;2022-09-09T00:48:53;100043.28;;;15.85;86.34
13968;BME280;39536;52.198;9.920;2022-09-09T00:51:29;100040.84;;;15.82;86.31
13968;BME280;39536;52.198;9.920;2022-09-09T00:54:18;100042.06;;;15.76;86.66
13968;BME280;39536;52.198;9.920;2022-09-09T00:57:01;100041.50;;;15.71;86.86
13968;BME280;39536;52.198;9.920;2022-09-09T00:59:37;100042.66;;;15.67;87.07
13968;BME280;39536;52.198;9.920;2022-09-09T01:02:13;100042.66;;;15.67;87.08
13968;BME280;39536;52.198;9.920;2022-09-09T01:04:42;100035.84;;;15.63;87.61
13968;BME280;39536;52.198;9.920;2022-09-09T01:07:16;100046.28;;;15.64;87.46
13968;BME280;39536;52.198;9.920;2022-09-09T01:09:51;100041.28;;;15.60;87.81
13968;BME280;39536;52.198;9.920;2022-09-09T01:12:25;100039.44;;;15.62;87.65
13968;BME280;39536;52.198;9.920;2022-09-09T01:14:58;100042.03;;;15.62;87.55
13968;BME280;39536;52.198;9.920;2022-09-09T01:17:30;100044.38;;;15.66;87.37
13968;BME280;39536;52.198;9.920;2022-09-09T01:20:05;100049.28;;;15.58;87.46
13968;BME280;39536;52.198;9.920;2022-09-09T01:22:35;100052.56;;;15.62;87.48
13968;BME280;39536;52.198;9.920;2022-09-09T01:28:25;100038.28;;;15.66;87.71
13968;BME280;39536;52.198;9.920;2022-09-09T01:30:53;100034.06;;;15.63;87.71
13968;BME280;39536;52.198;9.920;2022-09-09T01:33:21;100034.94;;;15.64;87.60
13968;BME280;39536;52.198;9.920;2022-09-09T01:35:50;100025.47;;;15.61;87.88
13968;BME280;39536;52.198;9.920;2022-09-09T01:38:20;100029.09;;;15.59;87.59
13968;BME280;39536;52.198;9.920;2022-09-09T01:40:47;100027.25;;;15.61;87.52
13968;BME280;39536;52.198;9.920;2022-09-09T01:43:17;100022.72;;;15.63;87.59
13968;BME280;39536;52.198;9.920;2022-09-09T01:45:46;100033.00;;;15.67;87.78
13968;BME280;39536;52.198;9.920;2022-09-09T01:48:16;100029.41;;;15.68;87.81
13968;BME280;39536;52.198;9.920;2022-09-09T01:50:44;100033.81;;;15.68;87.96
13968;BME280;39536;52.198;9.920;2022-09-09T01:53:11;100040.03;;;15.67;87.93
13968;BME280;39536;52.198;9.920;2022-09-09T01:55:40;100032.50;;;15.61;87.86
13968;BME280;39536;52.198;9.920;2022-09-09T01:58:20;100035.97;;;15.61;87.84
13968;BME280;39536;52.198;9.920;2022-09-09T02:00:57;100034.06;;;15.63;87.62
13968;BME280;39536;52.198;9.920;2022-09-09T02:03:29;100039.44;;;15.62;88.27
13968;BME280;39536;52.198;9.920;2022-09-09T02:06:07;100032.31;;;15.64;87.85
13968;BME280;39536;52.198;9.920;2022-09-09T02:08:42;100043.84;;;15.61;88.08
13968;BME280;39536;52.198;9.920;2022-09-09T02:11:13;100043.53;;;15.66;87.87
13968;BME280;39536;52.198;9.920;2022-09-09T02:13:43;100045.28;;;15.67;87.95
13968;BME280;39536;52.198;9.920;2022-09-09T02:16:15;100042.47;;;15.70;88.35
13968;BME280;39536;52.198;9.920;2022-09-09T02:18:49;100037.22;;;15.70;88.35
13968;BME280;39536;52.198;9.920;2022-09-09T02:21:17;100036.16;;;15.73;88.25
13968;BME280;39536;52.198;9.920;2022-09-09T02:23:46;100042.34;;;15.72;88.35
13968;BME280;39536;52.198;9.920;2022-09-09T02:26:17;100040.69;;;15.70;88.26
13968;BME280;39536;52.198;9.920;2022-09-09T02:28:49;100039.06;;;15.68;88.34
13968;BME280;39536;52.198;9.920;2022-09-09T02:31:20;100035.84;;;15.63;88.68
13968;BME280;39536;52.198;9.920;2022-09-09T02:33:51;100027.06;;;15.64;88.68
13968;BME280;39536;52.198;9.920;2022-09-09T02:36:20;100022.19;;;15.58;88.77
13968;BME280;39536;52.198;9.920;2022-09-09T02:38:48;100024.81;;;15.58;88.87
13968;BME280;39536;52.198;9.920;2022-09-09T02:41:18;100018.69;;;15.57;88.75
13968;BME280;39536;52.198;9.920;2022-09-09T02:43:46;100016.94;;;15.58;88.52
13968;BME280;39536;52.198;9.920;2022-09-09T02:46:29;100023.09;;;15.57;88.69
13968;BME280;39536;52.198;9.920;2022-09-09T02:49:03;100015.22;;;15.57;88.56
13968;BME280;39536;52.198;9.920;2022-09-09T02:51:40;100019.94;;;15.52;89.13
13968;BME280;39536;52.198;9.920;2022-09-09T02:54:16;100029.56;;;15.37;89.47
13968;BME280;39536;52.198;9.920;2022-09-09T02:56:49;100029.72;;;15.19;89.51
13968;BME280;39536;52.198;9.920;2022-09-09T02:59:18;100030.69;;;15.18;89.96
13968;BME280;39536;52.198;9.920;2022-09-09T03:01:46;100025.72;;;15.28;90.00
13968;BME280;39536;52.198;9.920;2022-09-09T03:04:13;100028.28;;;15.30;90.07
13968;BME280;39536;52.198;9.920;2022-09-09T03:06:39;100022.06;;;15.31;90.20
13968;BME280;39536;52.198;9.920;2022-09-09T03:09:06;100030.78;;;15.31;90.12
13968;BME280;39536;52.198;9.920;2022-09-09T03:11:35;100025.47;;;15.33;90.18
13968;BME280;39536;52.198;9.920;2022-09-09T03:14:02;100031.56;;;15.33;90.04
13968;BME280;39536;52.198;9.920;2022-09-09T03:16:29;100035.78;;;15.36;90.27
13968;BME280;39536;52.198;9.920;2022-09-09T03:18:57;100031.63;;;15.32;90.56
13968;BME280;39536;52.198;9.920;2022-09-09T03:21:24;100030.59;;;15.34;90.62
13968;BME280;39536;52.198;9.920;2022-09-09T03:23:50;100030.41;;;15.37;90.88
13968;BME280;39536;52.198;9.920;2022-09-09T03:26:17;100029.22;;;15.43;90.63
13968;BME280;39536;52.198;9.920;2022-09-09T03:28:44;100027.88;;;15.50;90.28
13968;BME280;39536;52.198;9.920;2022-09-09T03:31:11;100022.91;;;15.60;89.96
13968;BME280;39536;52.198;9.920;2022-09-09T03:33:38;100020.94;;;15.63;89.93
13968;BME280;39536;52.198;9.920;2022-09-09T03:36:07;100019.25;;;15.62;90.14
13968;BME280;39536;52.198;9.920;2022-09-09T03:38:34;100027.06;;;15.64;90.62
13968;BME280;39536;52.198;9.920;2022-09-09T03:41:01;100018.91;;;15.68;90.13
13968;BME280;39536;52.198;9.920;2022-09-09T03:43:28;100021.34;;;15.72;89.93
13968;BME280;39536;52.198;9.920;2022-09-09T03:45:54;100024.44;;;15.78;89.51
13968;BME280;39536;52.198;9.920;2022-09-09T03:48:22;100021.03;;;15.76;89.36
13968;BME280;39536;52.198;9.920;2022-09-09T03:50:50;100023.66;;;15.76;89.87
13968;BME280;39536;52.198;9.920;2022-09-09T03:53:19;100011.31;;;15.78;89.39
13968;BME280;39536;52.198;9.920;2022-09-09T03:55:47;100018.97;;;15.81;89.27
13968;BME280;39536;52.198;9.920;2022-09-09T03:58:15;100017.50;;;15.77;89.38
13968;BME280;39536;52.198;9.920;2022-09-09T04:00:43;100025.72;;;15.85;89.29
13968;BME280;39536;52.198;9.920;2022-09-09T04:03:18;100019.34;;;15.89;89.32
13968;BME280;39536;52.198;9.920;2022-09-09T04:05:48;100026.28;;;15.90;89.43
13968;BME280;39536;52.198;9.920;2022-09-09T04:08:15;100027.25;;;15.89;89.14
13968;BME280;39536;52.198;9.920;2022-09-09T04:10:44;100021.78;;;15.92;89.03
13968;BME280;39536;52.198;9.920;2022-09-09T04:13:11;100023.66;;;15.90;88.43
13968;BME280;39536;52.198;9.920;2022-09-09T04:15:41;100032.75;;;15.85;88.91
13968;BME280;39536;52.198;9.920;2022-09-09T04:18:08;100034.66;;;15.83;89.45
13968;BME280;39536;52.198;9.920;2022-09-09T04:20:35;100030.53;;;15.79;89.60
13968;BME280;39536;52.198;9.920;2022-09-09T04:23:01;100031.47;;;15.78;89.83
13968;BME280;39536;52.198;9.920;2022-09-09T04:25:28;100031.16;;;15.82;89.89
13968;BME280;39536;52.198;9.920;2022-09-09T04:27:57;100031.66;;;15.89;89.75
13968;BME280;39536;52.198;9.920;2022-09-09T04:30:24;100031.94;;;15.84;90.04
13968;BME280;39536;52.198;9.920;2022-09-09T04:32:52;100032.03;;;15.83;90.17
13968;BME280;39536;52.198;9.920;2022-09-09T04:35:18;100039.44;;;15.90;90.19
13968;BME280;39536;52.198;9.920;2022-09-09T04:37:46;100034.09;;;15.92;90.15
13968;BME280;39536;52.198;9.920;2022-09-09T04:40:13;100040.81;;;15.96;89.86
13968;BME280;39536;52.198;9.920;2022-09-09T04:42:40;100042.22;;;16.02;89.74
13968;BME280;39536;52.198;9.920;2022-09-09T04:45:10;100039.50;;;16.03;89.25
13968;BME280;39536;52.198;9.920;2022-09-09T04:47:38;100039.22;;;16.08;88.99
13968;BME280;39536;52.198;9.920;2022-09-09T04:50:06;100035.72;;;16.07;88.52
13968;BME280;39536;52.198;9.920;2022-09-09T04:52:33;100044.47;;;16.08;88.66
13968;BME280;39536;52.198;9.920;2022-09-09T04:55:00;100045.19;;;16.10;88.06
13968;BME280;39536;52.198;9.920;2022-09-09T04:57:26;100046.72;;;16.14;88.07
13968;BME280;39536;52.198;9.920;2022-09-09T04:59:53;100049.66;;;16.22;87.90
13968;BME280;39536;52.198;9.920;2022-09-09T05:02:21;100045.94;;;16.26;87.99
13968;BME280;39536;52.198;9.920;2022-09-09T05:04:47;100056.31;;;16.28;87.89
13968;BME280;39536;52.198;9.920;2022-09-09T05:07:14;100051.00;;;16.29;87.91
13968;BME280;39536;52.198;9.920;2022-09-09T05:09:41;100053.69;;;16.28;88.53
13968;BME280;39536;52.198;9.920;2022-09-09T05:12:07;100052.47;;;16.33;88.38
13968;BME280;39536;52.198;9.920;2022-09-09T05:14:34;100053.00;;;16.38;88.40
13968;BME280;39536;52.198;9.920;2022-09-09T05:17:01;100052.91;;;16.40;88.58
13968;BME280;39536;52.198;9.920;2022-09-09T05:19:29;100049.25;;;16.43;88.57
13968;BME280;39536;52.198;9.920;2022-09-09T05:21:55;100050.84;;;16.45;88.67
13968;BME280;39536;52.198;9.920;2022-09-09T05:24:22;100053.75;;;16.40;88.76
13968;BME280;39536;52.198;9.920;2022-09-09T05:26:49;100053.47;;;16.45;89.11
13968;BME280;39536;52.198;9.920;2022-09-09T05:29:15;100042.56;;;16.51;88.68
13968;BME280;39536;52.198;9.920;2022-09-09T05:31:44;100049.38;;;16.54;88.46
13968;BME280;39536;52.198;9.920;2022-09-09T05:34:12;100047.41;;;16.57;88.51
13968;BME280;39536;52.198;9.920;2022-09-09T05:36:39;100044.59;;;16.60;88.30
13968;BME280;39536;52.198;9.920;2022-09-09T05:39:06;100051.59;;;16.60;88.07
13968;BME280;39536;52.198;9.920;2022-09-09T05:41:32;100052.91;;;16.67;87.60
13968;BME280;39536;52.198;9.920;2022-09-09T05:44:00;100061.09;;;16.62;87.69
13968;BME280;39536;52.198;9.920;2022-09-09T05:46:26;100056.97;;;16.58;87.73
13968;BME280;39536;52.198;9.920;2022-09-09T05:48:53;100063.31;;;16.69;87.66
13968;BME280;39536;52.198;9.920;2022-09-09T05:51:22;100061.06;;;16.77;87.40
13968;BME280;39536;52.198;9.920;2022-09-09T05:53:50;100062.25;;;16.85;87.61
13968;BME280;39536;52.198;9.920;2022-09-09T05:56:18;100067.41;;;16.87;86.86
13968;BME280;39536;52.198;9.920;2022-09-09T05:58:45;100064.28;;;16.95;86.17
13968;BME280;39536;52.198;9.920;2022-09-09T06:01:14;100061.44;;;16.98;85.85
13968;BME280;39536;52.198;9.920;2022-09-09T06:03:42;100071.09;;;16.97;86.45
13968;BME280;39536;52.198;9.920;2022-09-09T06:06:12;100070.81;;;17.02;86.00
13968;BME280;39536;52.198;9.920;2022-09-09T06:08:41;100078.28;;;17.08;85.51
13968;BME280;39536;52.198;9.920;2022-09-09T06:11:11;100082.59;;;17.09;85.37
13968;BME280;39536;52.198;9.920;2022-09-09T06:13:38;100079.88;;;17.11;85.60
13968;BME280;39536;52.198;9.920;2022-09-09T06:16:05;100075.97;;;17.16;85.11
13968;BME280;39536;52.198;9.920;2022-09-09T06:18:32;100077.34;;;17.22;85.61
13968;BME280;39536;52.198;9.920;2022-09-09T06:21:00;100076.22;;;17.26;85.13
13968;BME280;39536;52.198;9.920;2022-09-09T06:23:30;100076.84;;;17.29;84.70
13968;BME280;39536;52.198;9.920;2022-09-09T06:26:04;100079.06;;;17.36;84.50
13968;BME280;39536;52.198;9.920;2022-09-09T06:28:33;100072.63;;;17.40;84.48
13968;BME280;39536;52.198;9.920;2022-09-09T06:31:00;100073.66;;;17.50;84.02
13968;BME280;39536;52.198;9.920;2022-09-09T06:33:30;100067.91;;;17.58;83.16
13968;BME280;39536;52.198;9.920;2022-09-09T06:35:57;100065.66;;;17.64;82.96
13968;BME280;39536;52.198;9.920;2022-09-09T06:38:24;100057.78;;;17.77;83.00
13968;BME280;39536;52.198;9.920;2022-09-09T06:40:52;100055.91;;;17.79;82.98
13968;BME280;39536;52.198;9.920;2022-09-09T06:43:20;100063.66;;;17.81;82.07
13968;BME280;39536;52.198;9.920;2022-09-09T06:45:54;100058.06;;;17.98;82.15
13968;BME280;39536;52.198;9.920;2022-09-09T06:48:21;100060.13;;;18.06;81.45
13968;BME280;39536;52.198;9.920;2022-09-09T06:50:47;100066.03;;;18.09;81.07
13968;BME280;39536;52.198;9.920;2022-09-09T06:53:16;100056.00;;;18.14;80.75
13968;BME280;39536;52.198;9.920;2022-09-09T06:55:44;100060.94;;;18.19;80.76
13968;BME280;39536;52.198;9.920;2022-09-09T06:58:11;100051.09;;;18.34;80.14
13968;BME280;39536;52.198;9.920;2022-09-09T07:00:37;100063.56;;;18.32;80.61
13968;BME280;39536;52.198;9.920;2022-09-09T07:03:05;100064.56;;;18.42;78.69
13968;BME280;39536;52.198;9.920;2022-09-09T07:05:31;100067.59;;;18.49;78.53
13968;BME280;39536;52.198;9.920;2022-09-09T07:07:58;100073.69;;;18.49;77.43
13968;BME280;39536;52.198;9.920;2022-09-09T07:10:24;100069.16;;;18.51;77.95
13968;BME280;39536;52.198;9.920;2022-09-09T07:12:51;100079.94;;;18.48;78.52
13968;BME280;39536;52.198;9.920;2022-09-09T07:15:18;100068.09;;;18.54;77.74
13968;BME280;39536;52.198;9.920;2022-09-09T07:17:45;100074.28;;;18.41;78.79
13968;BME280;39536;52.198;9.920;2022-09-09T07:20:13;100074.81;;;18.34;78.00
13968;BME280;39536;52.198;9.920;2022-09-09T07:22:39;100071.75;;;18.40;78.73
13968;BME280;39536;52.198;9.920;2022-09-09T07:25:07;100078.25;;;18.47;78.15
13968;BME280;39536;52.198;9.920;2022-09-09T07:27:33;100076.47;;;18.48;76.60
13968;BME280;39536;52.198;9.920;2022-09-09T07:29:59;100072.75;;;18.50;76.91
13968;BME280;39536;52.198;9.920;2022-09-09T07:32:27;100075.16;;;18.53;76.88
13968;BME280;39536;52.198;9.920;2022-09-09T07:34:55;100071.19;;;18.48;76.64
13968;BME280;39536;52.198;9.920;2022-09-09T07:37:24;100076.50;;;18.59;76.46
13968;BME280;39536;52.198;9.920;2022-09-09T07:39:50;100080.50;;;18.64;75.96
13968;BME280;39536;52.198;9.920;2022-09-09T07:42:17;100075.66;;;18.58;75.54
13968;BME280;39536;52.198;9.920;2022-09-09T07:44:44;100083.94;;;18.54;76.24
13968;BME280;39536;52.198;9.920;2022-09-09T07:47:10;100074.38;;;18.64;75.49
13968;BME280;39536;52.198;9.920;2022-09-09T07:49:37;100077.28;;;18.72;75.75
13968;BME280;39536;52.198;9.920;2022-09-09T07:52:03;100088.06;;;18.82;75.08
13968;BME280;39536;52.198;9.920;2022-09-09T07:54:31;100084.59;;;18.92;75.29
13968;BME280;39536;52.198;9.920;2022-09-09T07:56:58;100092.56;;;19.04;75.27
13968;BME280;39536;52.198;9.920;2022-09-09T07:59:24;100086.78;;;18.99;74.48
13968;BME280;39536;52.198;9.920;2022-09-09T08:01:51;100094.13;;;19.06;74.85
13968;BME280;39536;52.198;9.920;2022-09-09T08:04:20;100094.63;;;19.11;74.70
13968;BME280;39536;52.198;9.920;2022-09-09T08:06:48;100093.31;;;19.17;74.68
13968;BME280;39536;52.198;9.920;2022-09-09T08:09:15;100094.19;;;19.29;72.73
13968;BME280;39536;52.198;9.920;2022-09-09T08:11:43;100096.38;;;19.35;73.19
13968;BME280;39536;52.198;9.920;2022-09-09T08:14:11;100098.03;;;19.36;71.99
13968;BME280;39536;52.198;9.920;2022-09-09T08:16:40;100096.84;;;19.40;72.73
13968;BME280;39536;52.198;9.920;2022-09-09T08:19:08;100097.84;;;19.50;72.54
13968;BME280;39536;52.198;9.920;2022-09-09T08:21:36;100096.41;;;19.57;71.78
13968;BME280;39536;52.198;9.920;2022-09-09T08:24:04;100101.84;;;19.67;71.45
13968;BME280;39536;52.198;9.920;2022-09-09T08:26:32;100099.69;;;19.72;71.19
13968;BME280;39536;52.198;9.920;2022-09-09T08:29:03;100093.78;;;19.80;70.98
13968;BME280;39536;52.198;9.920;2022-09-09T08:31:31;100106.44;;;19.88;70.55
13968;BME280;39536;52.198;9.920;2022-09-09T08:33:58;100098.38;;;19.89;69.48
13968;BME280;39536;52.198;9.920;2022-09-09T08:36:27;100097.78;;;19.86;70.67
13968;BME280;39536;52.198;9.920;2022-09-09T08:38:56;100099.91;;;19.80;71.23
13968;BME280;39536;52.198;9.920;2022-09-09T08:41:32;100102.09;;;19.87;71.45
13968;BME280;39536;52.198;9.920;2022-09-09T08:44:07;100097.53;;;19.89;71.31
13968;BME280;39536;52.198;9.920;2022-09-09T08:46:44;100096.56;;;19.90;71.63
13968;BME280;39536;52.198;9.920;2022-09-09T08:49:41;100099.81;;;20.04;71.19
13968;BME280;39536;52.198;9.920;2022-09-09T08:52:17;100107.34;;;20.20;70.56
13968;BME280;39536;52.198;9.920;2022-09-09T08:54:46;100106.63;;;20.41;70.56
13968;BME280;39536;52.198;9.920;2022-09-09T08:57:17;100113.28;;;20.67;68.49
13968;BME280;39536;52.198;9.920;2022-09-09T08:59:46;100111.16;;;20.93;67.98
13968;BME280;39536;52.198;9.920;2022-09-09T09:02:16;100113.28;;;20.99;67.36
13968;BME280;39536;52.198;9.920;2022-09-09T09:05:11;100116.41;;;21.05;66.55
13968;BME280;39536;52.198;9.920;2022-09-09T09:07:47;100117.38;;;21.04;67.33
13968;BME280;39536;52.198;9.920;2022-09-09T09:10:28;100120.28;;;21.01;67.09
13968;BME280;39536;52.198;9.920;2022-09-09T09:12:58;100123.72;;;20.80;67.43
13968;BME280;39536;52.198;9.920;2022-09-09T09:15:31;100125.34;;;20.92;66.34
13968;BME280;39536;52.198;9.920;2022-09-09T09:18:02;100128.25;;;20.89;67.11
13968;BME280;39536;52.198;9.920;2022-09-09T09:20:35;100118.38;;;20.91;66.52
13968;BME280;39536;52.198;9.920;2022-09-09T09:23:10;100122.16;;;21.10;67.26
13968;BME280;39536;52.198;9.920;2022-09-09T09:25:42;100114.41;;;21.18;66.24
13968;BME280;39536;52.198;9.920;2022-09-09T09:28:13;100119.03;;;21.37;66.04
13968;BME280;39536;52.198;9.920;2022-09-09T09:30:48;100116.88;;;21.52;65.05
13968;BME280;39536;52.198;9.920;2022-09-09T09:33:18;100120.09;;;21.55;64.59
13968;BME280;39536;52.198;9.920;2022-09-09T09:35:48;100111.06;;;21.58;65.53
13968;BME280;39536;52.198;9.920;2022-09-09T09:38:17;100108.97;;;21.61;64.66
13968;BME280;39536;52.198;9.920;2022-09-09T09:40:49;100107.63;;;21.67;64.72
13968;BME280;39536;52.198;9.920;2022-09-09T09:43:20;100109.09;;;21.81;65.10
13968;BME280;39536;52.198;9.920;2022-09-09T09:45:49;100102.69;;;21.93;63.97
13968;BME280;39536;52.198;9.920;2022-09-09T09:48:15;100109.59;;;22.05;63.82
13968;BME280;39536;52.198;9.920;2022-09-09T09:50:49;100106.38;;;22.02;63.02
13968;BME280;39536;52.198;9.920;2022-09-09T09:53:20;100099.50;;;21.99;63.67
13968;BME280;39536;52.198;9.920;2022-09-09T09:55:53;100099.69;;;22.07;63.88
13968;BME280;39536;52.198;9.920;2022-09-09T09:58:20;100102.50;;;22.06;61.92
13968;BME280;39536;52.198;9.920;2022-09-09T10:00:49;100098.06;;;21.85;62.00
13968;BME280;39536;52.198;9.920;2022-09-09T10:03:25;100085.34;;;21.79;62.36
13968;BME280;39536;52.198;9.920;2022-09-09T10:05:53;100092.16;;;21.41;63.60
13968;BME280;39536;52.198;9.920;2022-09-09T10:08:22;100091.47;;;21.49;64.12
13968;BME280;39536;52.198;9.920;2022-09-09T10:11:12;100097.50;;;21.51;63.79
13968;BME280;39536;52.198;9.920;2022-09-09T10:13:51;100092.19;;;21.51;64.36
13968;BME280;39536;52.198;9.920;2022-09-09T10:16:37;100092.88;;;21.43;64.22
13968;BME280;39536;52.198;9.920;2022-09-09T10:19:12;100078.69;;;21.54;64.61
13968;BME280;39536;52.198;9.920;2022-09-09T10:22:01;100084.22;;;21.72;64.12
13968;BME280;39536;52.198;9.920;2022-09-09T10:25:01;100085.41;;;21.99;63.64
13968;BME280;39536;52.198;9.920;2022-09-09T10:27:38;100085.56;;;22.28;62.06
13968;BME280;39536;52.198;9.920;2022-09-09T10:30:13;100082.91;;;22.38;60.84
13968;BME280;39536;52.198;9.920;2022-09-09T10:32:46;100078.53;;;22.27;61.70
13968;BME280;39536;52.198;9.920;2022-09-09T10:35:24;100070.44;;;22.19;59.43
13968;BME280;39536;52.198;9.920;2022-09-09T10:38:10;100082.59;;;21.81;57.93
13968;BME280;39536;52.198;9.920;2022-09-09T10:40:43;100074.03;;;21.77;59.53
13968;BME280;39536;52.198;9.920;2022-09-09T10:43:20;100080.47;;;22.15;60.25
13968;BME280;39536;52.198;9.920;2022-09-09T10:45:59;100075.53;;;22.51;58.56
13968;BME280;39536;52.198;9.920;2022-09-09T10:48:38;100073.56;;;22.82;57.25
13968;BME280;39536;52.198;9.920;2022-09-09T10:51:20;100086.88;;;23.01;55.80
13968;BME280;39536;52.198;9.920;2022-09-09T10:53:57;100081.25;;;22.85;55.33
13968;BME280;39536;52.198;9.920;2022-09-09T10:56:28;100077.34;;;22.41;55.03
13968;BME280;39536;52.198;9.920;2022-09-09T10:58:58;100080.78;;;22.22;55.80
13968;BME280;39536;52.198;9.920;2022-09-09T11:01:31;100082.69;;;22.10;57.26
13968;BME280;39536;52.198;9.920;2022-09-09T11:04:03;100079.59;;;21.74;59.39
13968;BME280;39536;52.198;9.920;2022-09-09T11:06:35;100078.47;;;21.67;59.63
13968;BME280;39536;52.198;9.920;2022-09-09T11:09:04;100078.72;;;21.64;60.07
13968;BME280;39536;52.198;9.920;2022-09-09T11:11:36;100076.34;;;21.61;61.23
13968;BME280;39536;52.198;9.920;2022-09-09T11:14:10;100086.63;;;21.54;62.23
13968;BME280;39536;52.198;9.920;2022-09-09T11:16:41;100101.97;;;21.51;64.32
13968;BME280;39536;52.198;9.920;2022-09-09T11:19:18;100100.38;;;21.27;66.54
13968;BME280;39536;52.198;9.920;2022-09-09T11:21:47;100103.03;;;21.06;67.68
13968;BME280;39536;52.198;9.920;2022-09-09T11:24:19;100107.31;;;20.86;68.30
13968;BME280;39536;52.198;9.920;2022-09-09T11:26:51;100105.59;;;20.64;66.67
13968;BME280;39536;52.198;9.920;2022-09-09T11:29:42;100103.72;;;20.44;65.03
13968;BME280;39536;52.198;9.920;2022-09-09T11:32:29;100103.00;;;20.42;65.10
13968;BME280;39536;52.198;9.920;2022-09-09T11:35:12;100104.56;;;20.33;66.01
13968;BME280;39536;52.198;9.920;2022-09-09T11:38:00;100104.31;;;20.36;65.16
13968;BME280;39536;52.198;9.920;2022-09-09T11:40:30;100106.94;;;20.47;63.75
13968;BME280;39536;52.198;9.920;2022-09-09T11:43:03;100105.75;;;20.51;64.58
13968;BME280;39536;52.198;9.920;2022-09-09T11:45:32;100107.06;;;20.46;65.28
13968;BME280;39536;52.198;9.920;2022-09-09T11:48:01;100129.56;;;20.40;66.10
13968;BME280;39536;52.198;9.920;2022-09-09T11:50:35;100123.06;;;19.54;70.28
13968;BME280;39536;52.198;9.920;2022-09-09T11:53:18;100113.16;;;19.34;72.52
13968;BME280;39536;52.198;9.920;2022-09-09T11:56:07;100110.09;;;19.05;73.58
13968;BME280;39536;52.198;9.920;2022-09-09T11:58:41;100115.53;;;18.90;74.86
13968;BME280;39536;52.198;9.920;2022-09-09T12:01:24;100117.78;;;18.84;76.05
13968;BME280;39536;52.198;9.920;2022-09-09T12:04:00;100125.47;;;18.87;78.85
13968;BME280;39536;52.198;9.920;2022-09-09T12:06:33;100110.69;;;18.73;76.47
13968;BME280;39536;52.198;9.920;2022-09-09T12:09:09;100113.38;;;18.72;78.30
13968;BME280;39536;52.198;9.920;2022-09-09T12:11:42;100117.41;;;18.77;76.91
13968;BME280;39536;52.198;9.920;2022-09-09T12:14:19;100108.47;;;18.67;77.20
13968;BME280;39536;52.198;9.920;2022-09-09T12:16:46;100105.47;;;18.72;78.11
13968;BME280;39536;52.198;9.920;2022-09-09T12:19:16;100096.69;;;18.84;77.54
13968;BME280;39536;52.198;9.920;2022-09-09T12:21:51;100086.88;;;18.86;76.37
13968;BME280;39536;52.198;9.920;2022-09-09T12:24:26;100085.56;;;18.91;77.03
13968;BME280;39536;52.198;9.920;2022-09-09T12:26:59;100096.16;;;19.03;77.48
13968;BME280;39536;52.198;9.920;2022-09-09T12:29:36;100101.81;;;19.09;78.18
13968;BME280;39536;52.198;9.920;2022-09-09T12:32:09;100091.00;;;19.01;78.58
13968;BME280;39536;52.198;9.920;2022-09-09T12:34:39;100099.63;;;19.03;78.41
13968;BME280;39536;52.198;9.920;2022-09-09T12:37:26;100098.41;;;18.96;77.98
13968;BME280;39536;52.198;9.920;2022-09-09T12:39:55;100093.19;;;19.07;78.63
13968;BME280;39536;52.198;9.920;2022-09-09T12:42:23;100095.59;;;19.10;77.52
13968;BME280;39536;52.198;9.920;2022-09-09T12:44:54;100097.41;;;19.21;78.40
13968;BME280;39536;52.198;9.920;2022-09-09T12:47:23;100090.22;;;19.23;76.84
13968;BME280;39536;52.198;9.920;2022-09-09T12:49:51;100101.97;;;19.19;76.74
13968;BME280;39536;52.198;9.920;2022-09-09T12:52:25;100104.31;;;19.35;77.71
13968;BME280;39536;52.198;9.920;2022-09-09T12:54:57;100102.63;;;19.45;77.71
13968;BME280;39536;52.198;9.920;2022-09-09T12:57:26;100113.78;;;19.49;76.25
13968;BME280;39536;52.198;9.920;2022-09-09T13:00:10;100117.78;;;19.54;76.02
13968;BME280;39536;52.198;9.920;2022-09-09T13:02:46;100111.06;;;19.61;73.14
13968;BME280;39536;52.198;9.920;2022-09-09T13:05:17;100116.63;;;19.70;73.30
13968;BME280;39536;52.198;9.920;2022-09-09T13:07:44;100110.03;;;19.75;73.69
13968;BME280;39536;52.198;9.920;2022-09-09T13:10:13;100104.97;;;19.83;73.61
13968;BME280;39536;52.198;9.920;2022-09-09T13:12:41;100110.97;;;19.97;73.50
13968;BME280;39536;52.198;9.920;2022-09-09T13:15:19;100113.13;;;20.03;72.74